• Join FlightAware (Why Join?)
  • Login
  • US Flag 
11:45PM EDT


 

Airport Tracker/Info


-or-


 

Live Flight TrackerFlight Track Log ✈ BAW2256 ✈ 04-May-2013 ✈ TKPK / SKB - TAPA / ANU

Flight Track Log - Related Links

Times and Time Zones

All times are in EDT time to prevent confusion due to time zone crossing. See the BAW2256 flight status page for this flight to view local times or setup timezone preferences in your user account.

Time Position Orientation Groundspeed Altitude Reporting Facility
EDT Latitude Longitude Course Direction KTS MPH feet Rate Location/Type
05:43PM 17.2560 -62.6320 99° East 285 328 5,500  Level FlightAware
05:43PM 17.2500 -62.5930 99° East 291 335 6,700 2,400 Climbing FlightAware
05:43PM 17.2500 -62.5870 90° East 294 338 6,900 360 Climbing FlightAware
05:44PM 17.2450 -62.5560 100° East 294 338 6,900  Level FlightAware
05:47PM 17.2282 -62.4359 98° East  Level Estimated
05:48PM 17.2219 -62.3917 98° East  Level Estimated
05:49PM 17.2157 -62.3475 98° East  Level Estimated
05:50PM 17.2095 -62.3032 98° East  Level Estimated
05:50PM 17.1650 -62.0470 98° East 280 322 7,000  Level FlightAware
05:52PM 17.1566 -61.9708 97° East  Level Estimated
05:53PM 17.1516 -61.9264 97° East  Level Estimated
05:54PM 17.1467 -61.8821 97° East  Level Estimated
05:55PM 17.1418 -61.8377 97° East  Level Estimated
05:56PM 17.1368 -61.7933 97° East  Level Estimated
05:57PM 17.1367 -61.7927 96° East  Level Estimated
05:58PM 17.1367 -61.7927 109° East  Level Estimated
05:59PM 17.1367 -61.7927 109° East  Level Estimated
06:00PM 17.1367 -61.7927 109° East  Level Estimated
06:01PM 17.1367 -61.7927 109° East  Level Estimated
06:02PM 17.1367 -61.7927 109° East  Level Estimated
06:03PM 17.1367 -61.7927 109° East  Level Estimated
06:04PM 17.1367 -61.7927 109° East  Level Estimated
06:05PM 17.1367 -61.7927 109° East  Level Estimated
06:06PM 17.1367 -61.7927 109° East  Level Estimated
06:07PM 17.1367 -61.7927 109° East  Level Estimated
06:08PM 17.1367 -61.7927 109° East  Level Estimated
06:09PM 17.1367 -61.7927 109° East  Level Estimated
06:10PM 17.1367 -61.7927 109° East  Level Estimated
06:11PM 17.1367 -61.7927 109° East  Level Estimated
06:12PM 17.1367 -61.7927 109° East  Level Estimated